Aérodrome :
LOGIN :

S'inscrire | Disclaimer

   EN    FR    IT 

 










Légende :    VFR   VFR Marginal   IFR   IFR Intensif   IFR Très Intensif
Visi : 
Plafond : 
>= 8 km
>= 3000ft
5 à 8 km
1000 à 3000 ft
1500m à 5 km
500 à 1000 ft
800 à 1500m
200 à 500 ft
< 800m
< 200 ft
Symboles :   Orages  Brouillard  Fortes neiges  Fortes précipitations  Vent > 20 kt
SIGMETs :   Divers  Orages  Givrage  Turbulence  Onde Orograph.  Cendres Volcan.







- Altitude de l'aérodrome : 147 ft
- Code IATA : DUS


EDDL - Düsseldorf Int.

DERNIER METAR :
  • 210950Z 24013KT 9999 -RA FEW031 BKN048 14/11 Q1007 TEMPO 25015G30KT

METARs EXPIRÉS :
  • 210920Z 25016KT 9999 -RA FEW013 BKN043 14/10 Q1007 RERA TEMPO 25015G30KT
  • 210850Z 26027G41KT 9999 RA FEW013 SCT022 BKN030 14/11 Q1006 BECMG 24020G30KT NSW
  • 210820Z 22018KT 9999 -RA BKN042 BKN097 21/12 Q1003 TEMPO 23020G35KT RA
  • 210750Z 22020KT 9999 -RA SCT045 SCT080 BKN100 21/12 Q1003 TEMPO 23020G35KT RA
  • 210720Z 22026G37KT 9999 -RA FEW030 SCT060 BKN100 22/11 Q1004 NOSIG

TAF TAF EDDL
Valide du 21 à 06h jusqu'au 22 à 12h UTC


210500Z 2106/2212 18015G25KT 9999 SCT040
BECMG 2106/2108 25020G30KT
TEMPO 2108/2111 21020G40KT RA
BECMG 2116/2119 23011KT
PROB30
TEMPO 2119/2123 24015G25KT
TEMPO 2209/2212 26015G25KT
Pas de NOTAMs connus pour ce terrain.



MET'MAP, la Météo Aéronautique d'un coup d'oeil ! - Copyright ORBIFLY Décembre 2007 - Disclaimer

ORBIFLY MET'MAP TEAM :

Programmation & Développement : Alexandra Zaïnal
Conception & Développement : Baudouin d'Aumeries
Co-Programmation & Développement : Marc-Olivier Méhu
Soutien technique & logistique : Manuel Goepfert

Contact : metmap@orbifly.com




SOURCES & CREDITS :

   NOAA